KLND/LND METAR and TAF weather

Enter ICAO airport designator
Station Type Date Time Source
KLND METAR 2021/08/04 19:53 UTC NOAA

KLND 041953Z AUTO 01003KT 8SM CLR 29/03 A3026 RMK AO2 SLP174 T02890033


Station Type Date Time Source
KLND Decoded METAR 2021/08/04 19:53 UTC NOAA

LANDER HUNT FIELD, WY, United States (KLND) 42-49N 108-44W 1694M
Aug 04, 2021 - 03:53 PM EDT / 2021.08.04 1953 UTC
Wind: from the N (010 degrees) at 3 MPH (3 KT):0
Visibility: 8 mile(s):0
Sky conditions: clear
Temperature: 84.0 F (28.9 C)
Dew Point: 37.9 F (3.3 C)
Relative Humidity: 19%
Pressure (altimeter): 30.26 in. Hg (1024 hPa)
ob: KLND 041953Z AUTO 01003KT 8SM CLR 29/03 A3026 RMK AO2 SLP174 T02890033
cycle: 20

Station Type Date Time Source
KLND TAF 2021/08/04 18:24 UTC NOAA

TAF KLND 041720Z 0418/0518 VRB06KT P6SM SKC
FM042000 07007KT P6SM SKC
FM050200 25008KT P6SM FEW120
FM051400 VRB05KT P6SM FEW120

Example: see airport list